createdAt,value
2018-04-14T00:01:34.277Z,13.13
2018-04-14T00:04:05.324Z,13.83
2018-04-14T00:06:36.350Z,14.23
2018-04-14T00:09:07.366Z,15.00
2018-04-14T00:11:38.403Z,15.93
2018-04-14T00:14:09.411Z,15.57
2018-04-14T00:16:40.452Z,14.53
2018-04-14T00:19:11.461Z,15.47
2018-04-14T00:21:42.428Z,15.30
2018-04-14T00:24:13.505Z,14.83
2018-04-14T00:26:44.546Z,13.60
2018-04-14T00:29:15.577Z,14.60
2018-04-14T00:31:53.591Z,13.87
2018-04-14T00:34:24.600Z,14.97
2018-04-14T00:36:55.586Z,14.50
2018-04-14T00:39:26.553Z,14.67
2018-04-14T00:41:57.572Z,15.07
2018-04-14T00:44:28.530Z,15.07
2018-04-14T00:46:59.554Z,15.27
2018-04-14T00:49:30.560Z,16.67
2018-04-14T00:52:01.551Z,17.57
2018-04-14T00:54:32.584Z,17.03
2018-04-14T00:57:03.595Z,17.73
2018-04-14T00:59:34.626Z,18.47
2018-04-14T01:02:05.662Z,19.27
2018-04-14T01:04:36.703Z,18.07
2018-04-14T01:07:07.648Z,17.37
2018-04-14T01:09:38.650Z,18.17
2018-04-14T01:12:09.658Z,16.37
2018-04-14T01:14:40.696Z,16.63
2018-04-14T01:17:11.711Z,18.83
2018-04-14T01:19:42.764Z,18.23
2018-04-14T01:22:13.857Z,20.03
2018-04-14T01:24:44.891Z,19.00
2018-04-14T01:27:15.915Z,19.77
2018-04-14T01:29:46.916Z,21.23
2018-04-14T01:32:17.952Z,21.10
2018-04-14T01:34:48.953Z,20.97
2018-04-14T01:37:19.999Z,22.40
2018-04-14T01:39:50.969Z,23.00
2018-04-14T01:42:22.011Z,22.07
2018-04-14T01:44:53.057Z,21.63
2018-04-14T01:47:24.067Z,22.97
2018-04-14T01:49:55.135Z,22.93
2018-04-14T01:52:26.070Z,23.53
2018-04-14T01:54:57.059Z,24.23
2018-04-14T01:57:28.095Z,23.47
2018-04-14T01:59:59.167Z,24.70
2018-04-14T02:02:30.166Z,23.90
2018-04-14T02:05:01.138Z,25.73
2018-04-14T02:07:32.132Z,23.20
2018-04-14T02:10:03.198Z,25.33
2018-04-14T02:12:34.185Z,24.93
2018-04-14T02:15:05.201Z,24.77
2018-04-14T02:17:36.239Z,25.60
2018-04-14T02:20:07.241Z,26.57
2018-04-14T02:22:38.257Z,25.90
2018-04-14T02:25:09.222Z,25.57
2018-04-14T02:27:40.243Z,24.60
2018-04-14T02:30:11.275Z,24.63
2018-04-14T02:32:42.336Z,26.47
2018-04-14T02:35:13.390Z,27.50
2018-04-14T02:37:44.398Z,27.90
2018-04-14T02:40:15.395Z,26.37
2018-04-14T02:42:46.387Z,29.70
2018-04-14T02:45:17.365Z,29.17
2018-04-14T02:47:48.386Z,26.90
2018-04-14T02:50:19.394Z,28.00
2018-04-14T02:52:50.401Z,31.00
2018-04-14T02:55:21.420Z,31.93
2018-04-14T02:57:52.447Z,31.10
2018-04-14T03:00:23.487Z,30.73
2018-04-14T03:03:09.416Z,30.60
2018-04-14T03:05:40.450Z,29.30
2018-04-14T03:08:11.486Z,29.07
2018-04-14T03:10:42.464Z,30.10
2018-04-14T03:13:13.478Z,29.13
2018-04-14T03:15:44.490Z,26.60
2018-04-14T03:18:15.529Z,27.10
2018-04-14T03:20:46.531Z,27.80
2018-04-14T03:23:17.532Z,30.03
2018-04-14T03:25:48.589Z,29.60
2018-04-14T03:28:19.582Z,28.60
2018-04-14T03:30:50.581Z,28.10
2018-04-14T03:33:21.586Z,27.30
2018-04-14T03:35:52.600Z,28.17
2018-04-14T03:38:23.550Z,28.53
2018-04-14T03:40:54.512Z,29.53
2018-04-14T03:43:25.511Z,28.37
2018-04-14T03:45:56.518Z,28.70
2018-04-14T03:48:27.495Z,30.17
2018-04-14T03:50:58.506Z,31.07
2018-04-14T03:53:36.514Z,28.90
2018-04-14T03:56:07.537Z,27.47
2018-04-14T03:58:38.514Z,30.23
2018-04-14T04:01:09.496Z,30.77
2018-04-14T04:03:40.520Z,29.90
2018-04-14T04:06:11.507Z,30.87
2018-04-14T04:08:42.552Z,30.60
2018-04-14T04:11:13.589Z,31.90
2018-04-14T04:13:44.631Z,31.13
2018-04-14T04:16:15.597Z,31.03
2018-04-14T04:18:58.722Z,31.13
2018-04-14T04:21:42.150Z,30.80
2018-04-14T04:24:25.594Z,31.80
2018-04-14T04:26:56.596Z,30.70
2018-04-14T04:29:27.564Z,30.80
2018-04-14T04:31:58.640Z,29.83
2018-04-14T04:34:29.673Z,33.17
2018-04-14T04:37:00.681Z,30.17
2018-04-14T04:39:31.667Z,31.77
2018-04-14T04:42:02.690Z,28.70
2018-04-14T04:44:33.716Z,30.70
2018-04-14T04:47:04.760Z,29.40
2018-04-14T04:49:35.730Z,29.90
2018-04-14T04:52:06.776Z,27.97
2018-04-14T04:54:37.800Z,28.67
2018-04-14T04:57:08.807Z,30.07
2018-04-14T04:59:39.832Z,29.73
2018-04-14T05:02:10.862Z,27.87
2018-04-14T05:04:41.901Z,27.63
2018-04-14T05:07:12.921Z,27.07
2018-04-14T05:09:43.966Z,27.57
2018-04-14T05:12:15.890Z,24.93
2018-04-14T05:14:47.101Z,26.10
2018-04-14T05:17:20.010Z,25.90
2018-04-14T05:19:51.090Z,24.57
2018-04-14T05:22:22.126Z,24.40
2018-04-14T05:24:53.102Z,23.03
2018-04-14T05:27:24.116Z,22.87
2018-04-14T05:29:55.176Z,22.63
2018-04-14T05:32:26.248Z,23.33
2018-04-14T05:34:57.223Z,22.37
2018-04-14T05:37:28.252Z,22.07
2018-04-14T05:39:59.198Z,20.73
2018-04-14T05:42:30.181Z,20.63
2018-04-14T05:45:01.218Z,20.80
2018-04-14T05:47:32.201Z,21.03
2018-04-14T05:50:03.223Z,20.33
2018-04-14T05:52:34.210Z,20.70
2018-04-14T05:55:12.211Z,20.57
2018-04-14T05:57:43.185Z,22.77
2018-04-14T06:00:14.249Z,21.57
2018-04-14T06:02:45.282Z,20.60
2018-04-14T06:05:16.320Z,20.10
2018-04-14T06:07:47.342Z,22.23
2018-04-14T06:10:18.329Z,22.40
2018-04-14T06:12:49.287Z,23.40
2018-04-14T06:15:20.289Z,22.30
2018-04-14T06:17:51.266Z,24.03
2018-04-14T06:20:22.252Z,22.47
2018-04-14T06:22:53.316Z,23.13
2018-04-14T06:25:24.358Z,24.53
2018-04-14T06:27:55.372Z,24.43
2018-04-14T06:30:26.411Z,26.57
2018-04-14T06:32:57.432Z,23.07
2018-04-14T06:35:28.431Z,27.23
2018-04-14T06:37:59.420Z,25.93
2018-04-14T06:40:37.307Z,24.70
2018-04-14T06:43:08.306Z,26.53
2018-04-14T06:45:39.293Z,24.80
2018-04-14T06:48:10.276Z,23.10
2018-04-14T06:50:41.284Z,22.10
2018-04-14T06:53:12.223Z,21.80
2018-04-14T06:55:43.258Z,21.47
2018-04-14T06:58:14.308Z,21.07
2018-04-14T07:00:45.309Z,19.90
2018-04-14T07:03:16.333Z,20.63
2018-04-14T07:05:47.327Z,20.97
2018-04-14T07:08:18.366Z,18.97
2018-04-14T07:10:49.372Z,19.57
2018-04-14T07:13:20.404Z,19.27
2018-04-14T07:15:51.423Z,18.17
2018-04-14T07:18:22.473Z,16.55
2018-04-14T07:20:53.489Z,18.10
2018-04-14T07:23:24.535Z,17.70
2018-04-14T07:25:55.559Z,16.77
2018-04-14T07:28:26.666Z,17.12
2018-04-14T07:30:57.728Z,18.12
2018-04-14T07:33:28.744Z,17.10
2018-04-14T07:35:59.706Z,17.58
2018-04-14T07:38:30.757Z,16.27
2018-04-14T07:41:01.867Z,16.45
2018-04-14T07:43:32.854Z,20.30
2018-04-14T07:46:03.886Z,17.33
2018-04-14T07:48:34.924Z,17.58
2018-04-14T07:51:05.951Z,17.25
2018-04-14T07:53:36.924Z,15.88
2018-04-14T07:56:08.039Z,14.35
2018-04-14T07:58:39.107Z,15.90
2018-04-14T08:01:10.131Z,26.62
2018-04-14T08:03:41.292Z,15.80
2018-04-14T08:06:12.455Z,16.35
2018-04-14T08:08:43.495Z,14.45
2018-04-14T08:11:14.516Z,14.48
2018-04-14T08:13:45.634Z,15.45
2018-04-14T08:16:16.620Z,15.25
2018-04-14T08:18:47.726Z,15.32
2018-04-14T08:21:18.729Z,15.65
2018-04-14T08:23:49.877Z,14.70
2018-04-14T08:26:20.906Z,15.40
2018-04-14T08:28:51.980Z,14.63
2018-04-14T08:31:23.021Z,15.02
2018-04-14T08:33:54.054Z,15.27
2018-04-14T08:36:25.128Z,15.13
2018-04-14T08:38:56.157Z,16.48
2018-04-14T08:41:27.211Z,16.67
2018-04-14T08:43:58.223Z,16.40
2018-04-14T08:46:29.230Z,16.62
2018-04-14T08:49:00.276Z,15.95
2018-04-14T08:51:31.319Z,16.12
2018-04-14T08:54:03.198Z,16.12
2018-04-14T08:56:34.185Z,16.77
2018-04-14T08:59:05.183Z,17.30
2018-04-14T09:01:36.190Z,16.67
2018-04-14T09:04:07.310Z,16.42
2018-04-14T09:06:38.374Z,16.45
2018-04-14T09:09:09.388Z,16.87
2018-04-14T09:11:40.428Z,16.83
2018-04-14T09:14:11.441Z,16.87
2018-04-14T09:16:42.475Z,16.58
2018-04-14T09:19:13.526Z,14.32
2018-04-14T09:21:44.543Z,22.98
2018-04-14T09:24:15.594Z,15.25
2018-04-14T09:26:46.609Z,14.18
2018-04-14T09:29:17.670Z,14.13
2018-04-14T09:31:48.692Z,14.45
2018-04-14T09:34:19.679Z,14.70
2018-04-14T09:36:50.666Z,14.20
2018-04-14T09:39:21.669Z,13.88
2018-04-14T09:41:52.679Z,12.30
2018-04-14T09:44:23.678Z,11.65
2018-04-14T09:46:54.652Z,11.88
2018-04-14T09:49:25.655Z,12.07
2018-04-14T09:51:56.698Z,12.37
2018-04-14T09:54:27.711Z,11.98
2018-04-14T09:56:58.727Z,11.07
2018-04-14T09:59:30.040Z,11.65
2018-04-14T10:02:01.073Z,11.45
2018-04-14T10:04:33.131Z,11.15
2018-04-14T10:07:04.154Z,10.45
2018-04-14T10:09:35.167Z,10.45
2018-04-14T10:12:06.203Z,9.65
2018-04-14T10:14:37.224Z,9.15
2018-04-14T10:17:08.265Z,9.25
2018-04-14T10:19:39.351Z,9.77
2018-04-14T10:22:10.409Z,9.20
2018-04-14T10:24:41.432Z,9.65
2018-04-14T10:27:12.472Z,8.25
2018-04-14T10:29:43.541Z,8.85
2018-04-14T10:32:14.552Z,8.20
2018-04-14T10:34:45.555Z,8.13
2018-04-14T10:37:23.629Z,7.15
2018-04-14T10:39:54.665Z,7.62
2018-04-14T10:42:25.751Z,10.18
2018-04-14T10:44:56.822Z,5.65
2018-04-14T10:47:27.826Z,5.45
2018-04-14T10:49:58.866Z,6.68
2018-04-14T10:52:31.315Z,9.15
2018-04-14T10:55:04.406Z,7.53
2018-04-14T10:57:35.585Z,7.85
2018-04-14T11:00:06.699Z,7.07
2018-04-14T11:02:37.849Z,6.82
2018-04-14T11:05:08.874Z,6.62
2018-04-14T11:07:39.911Z,6.30
2018-04-14T11:10:10.881Z,7.00
2018-04-14T11:12:41.884Z,6.67
2018-04-14T11:15:12.941Z,6.80
2018-04-14T11:17:43.926Z,6.47
2018-04-14T11:20:15.958Z,5.77
2018-04-14T11:22:46.967Z,5.43
2018-04-14T11:25:18.008Z,6.10
2018-04-14T11:27:49.026Z,5.87
2018-04-14T11:30:20.043Z,5.60
2018-04-14T11:32:51.072Z,5.97
2018-04-14T11:35:22.085Z,6.23
2018-04-14T11:37:53.090Z,4.50
2018-04-14T11:40:24.086Z,4.53
2018-04-14T11:42:55.093Z,4.83
2018-04-14T11:45:26.135Z,4.40
2018-04-14T11:47:57.184Z,4.23
2018-04-14T11:50:28.206Z,13.60
2018-04-14T11:52:59.251Z,3.60
2018-04-14T11:55:30.312Z,4.33
2018-04-14T11:58:01.306Z,4.97
2018-04-14T12:00:32.358Z,3.87
2018-04-14T12:03:03.373Z,2.90
2018-04-14T12:05:34.375Z,3.20
2018-04-14T12:08:05.408Z,4.60
2018-04-14T12:10:36.408Z,2.47
2018-04-14T12:13:07.486Z,2.50
2018-04-14T12:15:45.448Z,2.37
2018-04-14T12:18:16.513Z,2.43
2018-04-14T12:20:47.499Z,2.13
2018-04-14T12:23:18.554Z,3.53
2018-04-14T12:25:49.614Z,2.27
2018-04-14T12:28:20.638Z,5.13
2018-04-14T12:30:51.620Z,3.20
2018-04-14T12:33:22.680Z,2.23
2018-04-14T12:35:53.676Z,1.90
2018-04-14T12:38:24.756Z,1.87
2018-04-14T12:40:55.832Z,3.00
2018-04-14T12:43:26.822Z,2.33
2018-04-14T12:45:57.846Z,2.17
2018-04-14T12:48:28.842Z,2.20
2018-04-14T12:50:59.892Z,2.03
2018-04-14T12:53:30.851Z,1.80
2018-04-14T12:56:01.893Z,1.90
2018-04-14T12:58:32.905Z,1.80
2018-04-14T13:01:03.903Z,2.63
2018-04-14T13:03:34.894Z,2.00
2018-04-14T13:06:05.954Z,3.70
2018-04-14T13:08:36.912Z,2.40
2018-04-14T13:11:07.906Z,2.23
2018-04-14T13:13:38.917Z,2.77
2018-04-14T13:16:09.981Z,2.93
2018-04-14T13:18:41.026Z,3.03
2018-04-14T13:21:12.038Z,2.73
2018-04-14T13:23:42.998Z,15.03
2018-04-14T13:26:14.011Z,2.83
2018-04-14T13:28:45.025Z,2.70
2018-04-14T13:31:16.007Z,2.50
2018-04-14T13:33:47.005Z,2.50
2018-04-14T13:36:18.056Z,3.10
2018-04-14T13:38:49.051Z,3.30
2018-04-14T13:41:20.177Z,3.03
2018-04-14T13:43:51.264Z,2.63
2018-04-14T13:46:22.318Z,3.10
2018-04-14T13:48:53.366Z,3.43
2018-04-14T13:51:24.380Z,2.60
2018-04-14T13:53:55.411Z,2.80
2018-04-14T13:56:26.427Z,2.87
2018-04-14T13:58:57.471Z,2.53
2018-04-14T14:01:28.437Z,2.70
2018-04-14T14:03:59.450Z,2.67
2018-04-14T14:06:30.496Z,2.80
2018-04-14T14:09:01.452Z,4.00
2018-04-14T14:11:32.448Z,2.73
2018-04-14T14:14:03.445Z,3.03
2018-04-14T14:16:34.451Z,2.70
2018-04-14T14:19:05.486Z,2.70
2018-04-14T14:21:36.528Z,2.43
2018-04-14T14:24:07.562Z,2.43
2018-04-14T14:26:38.555Z,2.40
2018-04-14T14:29:09.578Z,2.80
2018-04-14T14:31:40.654Z,10.60
2018-04-14T14:34:11.632Z,4.50
2018-04-14T14:36:42.682Z,4.07
2018-04-14T14:39:13.689Z,3.10
2018-04-14T14:41:44.725Z,3.63
2018-04-14T14:44:15.771Z,3.80
2018-04-14T14:46:46.738Z,3.60
2018-04-14T14:49:17.784Z,4.27
2018-04-14T14:51:48.791Z,3.13
2018-04-14T14:54:19.826Z,3.87
2018-04-14T14:56:50.808Z,4.70
2018-04-14T14:59:21.793Z,2.93
2018-04-14T15:01:52.884Z,3.77
2018-04-14T15:04:23.885Z,3.53
2018-04-14T15:06:54.909Z,7.43
2018-04-14T15:09:25.934Z,3.53
2018-04-14T15:11:56.945Z,3.70
2018-04-14T15:14:27.988Z,5.53
2018-04-14T15:16:58.984Z,3.83
2018-04-14T15:19:30.001Z,3.40
2018-04-14T15:22:01.048Z,3.10
2018-04-14T15:24:32.060Z,3.70
2018-04-14T15:27:03.073Z,3.20
2018-04-14T15:29:34.051Z,3.80
2018-04-14T15:32:05.064Z,3.40
2018-04-14T15:34:36.072Z,3.70
2018-04-14T15:37:07.092Z,3.10
2018-04-14T15:39:38.068Z,3.47
2018-04-14T15:42:09.062Z,3.30
2018-04-14T15:44:40.065Z,3.23
2018-04-14T15:47:11.030Z,3.43
2018-04-14T15:49:42.051Z,3.30
2018-04-14T15:52:13.083Z,3.67
2018-04-14T15:54:44.082Z,4.27
2018-04-14T15:57:15.075Z,4.63
2018-04-14T15:59:46.065Z,4.13
2018-04-14T16:02:17.142Z,5.23
2018-04-14T16:04:48.140Z,4.67
2018-04-14T16:07:19.150Z,5.03
2018-04-14T16:09:50.186Z,4.90
2018-04-14T16:12:21.238Z,4.83
2018-04-14T16:14:52.283Z,4.50
2018-04-14T16:17:23.328Z,4.63
2018-04-14T16:19:54.362Z,5.93
2018-04-14T16:22:25.670Z,5.37
2018-04-14T16:24:56.679Z,5.13
2018-04-14T16:27:27.725Z,5.93
2018-04-14T16:29:58.768Z,7.67
2018-04-14T16:32:29.919Z,6.77
2018-04-14T16:35:00.956Z,7.77
2018-04-14T16:37:32.039Z,7.27
2018-04-14T16:40:03.067Z,6.93
2018-04-14T16:42:34.126Z,6.40
2018-04-14T16:45:05.182Z,6.67
2018-04-14T16:47:36.235Z,6.30
2018-04-14T16:50:07.278Z,7.33
2018-04-14T16:52:38.265Z,7.47
2018-04-14T16:55:09.310Z,7.07
2018-04-14T16:57:40.365Z,7.50
2018-04-14T17:00:11.395Z,7.33
2018-04-14T17:02:42.386Z,9.33
2018-04-14T17:05:13.431Z,6.47
2018-04-14T17:07:44.441Z,6.60
2018-04-14T17:10:15.493Z,8.57
2018-04-14T17:12:46.515Z,6.67
2018-04-14T17:15:17.501Z,6.27
2018-04-14T17:17:48.507Z,7.03
2018-04-14T17:20:19.515Z,6.37
2018-04-14T17:22:50.552Z,6.43
2018-04-14T17:25:21.593Z,5.90
2018-04-14T17:27:52.598Z,5.87
2018-04-14T17:30:23.600Z,5.67
2018-04-14T17:32:54.657Z,5.97
2018-04-14T17:35:25.715Z,6.80
2018-04-14T17:37:56.706Z,6.37
2018-04-14T17:40:27.764Z,6.57
2018-04-14T17:42:58.791Z,8.37
2018-04-14T17:45:29.859Z,11.63
2018-04-14T17:48:00.855Z,6.47
2018-04-14T17:50:31.796Z,6.50
2018-04-14T17:53:02.826Z,6.30
2018-04-14T17:55:33.794Z,6.97
2018-04-14T17:58:04.844Z,6.17
2018-04-14T18:00:35.879Z,7.57
2018-04-14T18:03:06.933Z,10.63
2018-04-14T18:05:37.953Z,8.47
2018-04-14T18:08:09.041Z,8.97
2018-04-14T18:10:40.054Z,10.43
2018-04-14T18:13:11.063Z,11.30
2018-04-14T18:15:42.056Z,7.43
2018-04-14T18:18:13.076Z,8.40
2018-04-14T18:20:44.111Z,9.13
2018-04-14T18:23:15.124Z,9.73
2018-04-14T18:25:46.132Z,8.97
2018-04-14T18:28:17.138Z,9.17
2018-04-14T18:30:48.147Z,9.10
2018-04-14T18:33:19.126Z,9.50
2018-04-14T18:35:50.145Z,8.37
2018-04-14T18:38:21.155Z,8.03
2018-04-14T18:40:52.179Z,7.37
2018-04-14T18:43:23.206Z,9.50
2018-04-14T18:45:54.186Z,7.83
2018-04-14T18:48:25.217Z,8.37
2018-04-14T18:50:56.288Z,9.23
2018-04-14T18:53:27.303Z,7.77
2018-04-14T18:55:58.321Z,7.80
2018-04-14T18:58:29.546Z,8.60
2018-04-14T19:01:00.556Z,8.70
2018-04-14T19:03:31.576Z,9.50
2018-04-14T19:06:02.588Z,8.17
2018-04-14T19:08:33.541Z,9.00
2018-04-14T19:11:04.566Z,9.60
2018-04-14T19:13:35.569Z,8.70
2018-04-14T19:16:06.676Z,9.17
2018-04-14T19:18:37.661Z,12.57
2018-04-14T19:21:08.690Z,8.07
2018-04-14T19:23:39.734Z,8.60
2018-04-14T19:26:10.795Z,16.17
2018-04-14T19:28:41.777Z,9.50
2018-04-14T19:31:12.790Z,8.67
2018-04-14T19:33:43.804Z,8.00
2018-04-14T19:36:14.764Z,8.57
2018-04-14T19:38:45.772Z,8.03
2018-04-14T19:41:16.741Z,7.93
2018-04-14T19:43:47.752Z,7.60
2018-04-14T19:46:18.752Z,8.33
2018-04-14T19:48:49.761Z,7.80
2018-04-14T19:51:20.865Z,11.47
2018-04-14T19:53:51.871Z,8.70
2018-04-14T19:56:22.913Z,7.73
2018-04-14T19:58:53.970Z,8.27
2018-04-14T20:01:24.973Z,7.33
2018-04-14T20:04:02.904Z,7.00
2018-04-14T20:06:33.960Z,7.33
2018-04-14T20:09:04.990Z,6.73
2018-04-14T20:11:35.985Z,7.10
2018-04-14T20:14:07.010Z,7.23
2018-04-14T20:16:38.062Z,6.63
2018-04-14T20:19:09.087Z,6.13
2018-04-14T20:21:40.120Z,6.40
2018-04-14T20:24:11.122Z,7.70
2018-04-14T20:26:42.157Z,8.33
2018-04-14T20:29:13.133Z,6.97
2018-04-14T20:31:44.094Z,6.70
2018-04-14T20:34:15.056Z,7.20
2018-04-14T20:36:46.062Z,7.00
2018-04-14T20:39:17.062Z,7.13
2018-04-14T20:41:48.066Z,7.37
2018-04-14T20:44:19.072Z,7.20
2018-04-14T20:46:50.081Z,9.40
2018-04-14T20:49:21.066Z,7.80
2018-04-14T20:51:52.107Z,6.70
2018-04-14T20:54:23.120Z,8.33
2018-04-14T20:56:54.140Z,9.27
2018-04-14T20:59:25.140Z,8.03
2018-04-14T21:01:56.148Z,7.10
2018-04-14T21:04:27.179Z,10.17
2018-04-14T21:06:58.171Z,7.60
2018-04-14T21:09:29.146Z,6.80
2018-04-14T21:12:00.182Z,8.40
2018-04-14T21:14:31.160Z,8.23
2018-04-14T21:17:05.034Z,8.13
2018-04-14T21:19:36.048Z,9.57
2018-04-14T21:22:07.111Z,9.07
2018-04-14T21:24:38.082Z,7.80
2018-04-14T21:27:09.134Z,9.47
2018-04-14T21:29:40.104Z,8.43
2018-04-14T21:32:11.073Z,8.67
2018-04-14T21:34:42.068Z,7.87
2018-04-14T21:37:13.072Z,9.87
2018-04-14T21:39:44.098Z,9.47
2018-04-14T21:42:15.095Z,7.43
2018-04-14T21:44:46.707Z,7.53
2018-04-14T21:47:17.724Z,8.20
2018-04-14T21:49:48.731Z,8.43
2018-04-14T21:52:19.709Z,8.13
2018-04-14T21:54:50.682Z,9.27
2018-04-14T21:57:21.682Z,10.27
2018-04-14T21:59:52.689Z,8.20
2018-04-14T22:02:23.690Z,10.10
2018-04-14T22:04:54.694Z,8.27
2018-04-14T22:07:25.675Z,8.97
2018-04-14T22:09:56.651Z,8.63
2018-04-14T22:12:27.655Z,8.77
2018-04-14T22:14:58.698Z,7.97
2018-04-14T22:17:29.671Z,8.80
2018-04-14T22:20:00.715Z,7.57
2018-04-14T22:22:32.240Z,7.87
2018-04-14T22:25:03.267Z,9.97
2018-04-14T22:27:34.261Z,9.27
2018-04-14T22:30:05.323Z,7.77
2018-04-14T22:32:36.282Z,8.37
2018-04-14T22:35:07.318Z,7.97
2018-04-14T22:37:38.329Z,8.37
2018-04-14T22:40:09.340Z,9.87
2018-04-14T22:42:40.360Z,9.47
2018-04-14T22:45:11.392Z,9.10
2018-04-14T22:47:42.427Z,7.30
2018-04-14T22:50:13.387Z,8.83
2018-04-14T22:52:44.473Z,7.70
2018-04-14T22:55:15.494Z,8.17
2018-04-14T22:57:46.467Z,8.40
2018-04-14T23:00:17.442Z,8.27
2018-04-14T23:02:48.490Z,7.23
2018-04-14T23:05:19.515Z,8.03
2018-04-14T23:07:50.551Z,8.97
2018-04-14T23:10:21.562Z,7.63
2018-04-14T23:12:52.527Z,6.90
2018-04-14T23:15:23.488Z,7.07
2018-04-14T23:17:54.477Z,7.37
2018-04-14T23:20:25.516Z,7.07
2018-04-14T23:22:56.543Z,7.10
2018-04-14T23:25:27.580Z,7.63
2018-04-14T23:27:58.586Z,7.27
2018-04-14T23:30:29.601Z,8.13
2018-04-14T23:33:00.692Z,7.47
2018-04-14T23:35:31.719Z,8.43
2018-04-14T23:38:02.733Z,7.27
2018-04-14T23:40:33.782Z,6.43
2018-04-14T23:43:04.819Z,6.63
2018-04-14T23:45:35.795Z,6.57
2018-04-14T23:48:06.835Z,8.27
2018-04-14T23:50:37.863Z,8.77
2018-04-14T23:53:08.836Z,7.50
2018-04-14T23:55:39.820Z,7.90
2018-04-14T23:58:10.827Z,7.23
